Humidity-temperature Sensor

Selected Measurement Type: Relative Humidity

 
Relative Humidity [%]     6 entries per hour
Showing data from 9/6/2017 (00:00:00 Z) to 8/30/2017 (00:01:00 Z)
Previous Next [ Day | 3-Days | 7-Days ]
First Last
Prev [ Day | 3-Days | 7-Days ] Next
First Last

Start Time:     :
End Time:     :     
Time (in GMT) :00 :50 :40 :30 :20 :10
Previous Next [ Day | 3-Days | 7-Days ]
First Last
Prev [ Day | 3-Days | 7-Days ] Next
First Last


123 => good data
MM => data is determined as missing
-- => data not received/configured
Back to Top Back to Top
9/6/2017 00:00 to 23:10 70.93 71.18 70.99 70.32 69.10 72.36
9/5/2017 23:00 to 22:10 70.97 72.45 71.69 72.28 73.04 75.88
9/5/2017 22:00 to 21:10 74.51 73.50 74.45 73.06 73.84 78.37
9/5/2017 21:00 to 20:10 79.88 81.48 82.14 80.16 82.62 79.99
9/5/2017 20:00 to 19:10 80.62 79.44 78.37 77.71 76.34 79.86
9/5/2017 19:00 to 18:10 80.68 78.47 79.42 83.04 81.48 83.80
9/5/2017 18:00 to 17:10 85.55 85.23 84.52 84.18 84.26 84.77
9/5/2017 17:00 to 16:10 83.08 86.01 89.42 87.15 86.03 78.39
9/5/2017 16:00 to 15:10 77.38 81.69 86.16 91.70 89.32 78.96
9/5/2017 15:00 to 14:10 80.09 80.18 81.59 81.57 79.27 81.34
9/5/2017 14:00 to 13:10 81.10 81.23 81.80 78.66 77.12 78.13
9/5/2017 13:00 to 12:10 78.49 84.56 84.09 85.53 85.21 85.13
9/5/2017 12:00 to 11:10 86.10 86.52 86.37 85.97 85.99 85.27
9/5/2017 11:00 to 10:10 85.17 84.35 83.59 84.26 84.31 84.90
9/5/2017 10:00 to 9:10 85.13 85.32 85.55 85.63 86.90 87.38
9/5/2017 09:00 to 8:10 87.63 87.57 87.23 86.79 86.75 86.18
9/5/2017 08:00 to 7:10 86.45 86.24 86.52 86.92 87.40 87.04
9/5/2017 07:00 to 6:10 86.45 86.56 86.14 86.69 88.18 87.36
9/5/2017 06:00 to 5:10 -- -- -- -- -- --
9/5/2017 05:00 to 4:10 90.56 91.36 91.78 91.61 90.58 87.09
9/5/2017 04:00 to 3:10 86.66 85.67 83.23 83.36 85.80 87.93
9/5/2017 03:00 to 2:10 88.24 89.97 89.36 89.80 91.99 92.44
9/5/2017 02:00 to 1:10 94.33 93.68 92.77 92.22 89.72 86.33
9/5/2017 01:00 to 0:10 87.23 87.40 87.82 87.30 88.94 88.81
9/5/2017 00:00 to 23:10 88.48 88.62 87.51 79.00 78.20 78.49
9/4/2017 23:00 to 22:10 78.16 78.43 80.05 80.51 81.84 81.29
9/4/2017 22:00 to 21:10 78.83 80.51 82.03 83.13 82.83 85.25
9/4/2017 21:00 to 20:10 87.57 88.60 86.16 84.71 84.39 84.85
9/4/2017 20:00 to 19:10 85.17 85.25 85.21 87.11 87.04 87.32
9/4/2017 19:00 to 18:10 87.74 88.71 88.54 88.14 86.39 77.23
9/4/2017 18:00 to 17:10 78.74 78.68 79.00 76.55 77.48 78.37
9/4/2017 17:00 to 16:10 77.00 75.88 76.30 77.06 77.99 79.02
9/4/2017 16:00 to 15:10 78.68 79.63 80.66 80.39 79.46 80.66
9/4/2017 15:00 to 14:10 80.37 80.72 80.54 81.38 76.51 74.34
9/4/2017 14:00 to 13:10 73.71 75.48 76.62 78.53 77.46 76.70
9/4/2017 13:00 to 12:10 75.31 75.21 73.90 76.91 83.04 78.30
9/4/2017 12:00 to 11:10 76.32 75.37 77.00 78.77 79.76 76.55
9/4/2017 11:00 to 10:10 77.31 72.49 73.42 72.83 73.63 76.26
9/4/2017 10:00 to 9:10 75.88 77.52 77.23 76.89 75.48 74.87
9/4/2017 09:00 to 8:10 74.47 76.39 74.01 75.42 74.28 73.88
9/4/2017 08:00 to 7:10 75.12 75.40 72.59 74.13 75.54 75.40
9/4/2017 07:00 to 6:10 73.96 75.84 74.43 74.32 74.81 74.51
9/4/2017 06:00 to 5:10 74.81 74.72 75.23 74.55 74.34 72.43
9/4/2017 05:00 to 4:10 72.28 72.34 70.74 71.33 72.66 72.53
9/4/2017 04:00 to 3:10 70.93 71.86 72.53 72.78 72.24 71.96
9/4/2017 03:00 to 2:10 71.92 72.15 72.07 72.28 73.14 72.66
9/4/2017 02:00 to 1:10 73.29 73.10 73.88 73.54 74.09 73.29
9/4/2017 01:00 to 0:10 73.56 73.80 73.33 72.15 71.63 74.22
9/4/2017 00:00 to 23:10 73.10 72.95 72.81 71.96 73.48 72.11
9/3/2017 23:00 to 22:10 71.52 73.27 73.84 73.92 73.10 73.69
9/3/2017 22:00 to 21:10 72.55 70.78 72.17 71.25 71.18 71.33
9/3/2017 21:00 to 20:10 70.76 73.25 72.05 74.72 72.74 73.40
9/3/2017 20:00 to 19:10 71.20 73.96 74.55 73.58 73.18 73.54
9/3/2017 19:00 to 18:10 71.54 73.16 73.42 71.92 74.89 75.29
9/3/2017 18:00 to 17:10 74.53 74.95 75.21 74.89 73.54 73.40
9/3/2017 17:00 to 16:10 74.22 77.73 79.38 79.42 78.20 78.60
9/3/2017 16:00 to 15:10 78.43 79.57 75.54 75.02 74.13 77.21
9/3/2017 15:00 to 14:10 75.99 75.99 74.89 73.61 74.20 73.67
9/3/2017 14:00 to 13:10 72.03 74.53 74.83 76.05 75.46 75.00
9/3/2017 13:00 to 12:10 74.24 75.50 73.46 73.92 73.82 74.62
9/3/2017 12:00 to 11:10 73.06 74.32 72.78 74.32 73.27 73.69
9/3/2017 11:00 to 10:10 73.90 73.04 73.56 72.95 73.33 73.10
9/3/2017 10:00 to 9:10 72.72 73.58 75.19 76.49 78.11 77.75
9/3/2017 09:00 to 8:10 77.73 77.42 77.99 77.57 78.34 78.39
9/3/2017 08:00 to 7:10 75.65 77.31 76.62 80.28 78.26 73.54
9/3/2017 07:00 to 6:10 78.62 77.73 78.18 77.04 78.32 78.43
9/3/2017 06:00 to 5:10 77.92 78.43 74.62 75.88 74.30 72.34
9/3/2017 05:00 to 4:10 75.06 74.93 74.03 73.86 72.66 71.67
9/3/2017 04:00 to 3:10 71.92 69.25 69.50 70.30 69.94 70.59
9/3/2017 03:00 to 2:10 73.25 74.70 75.04 75.35 74.74 75.19
9/3/2017 02:00 to 1:10 74.79 74.66 73.96 73.25 72.43 72.62
9/3/2017 01:00 to 0:10 72.05 74.60 74.22 76.95 76.83 79.61
9/3/2017 00:00 to 23:10 81.21 81.67 77.57 73.90 73.44 75.21
9/2/2017 23:00 to 22:10 75.71 74.53 75.21 74.95 73.67 78.79
9/2/2017 22:00 to 21:10 76.60 73.94 73.50 74.30 72.55 72.74
9/2/2017 21:00 to 20:10 73.80 73.42 73.61 74.17 75.08 74.36
9/2/2017 20:00 to 19:10 74.22 75.75 74.30 75.33 75.10 76.36
9/2/2017 19:00 to 18:10 74.43 74.22 73.92 74.83 74.70 74.45
9/2/2017 18:00 to 17:10 76.58 76.22 74.07 76.26 75.14 74.13
9/2/2017 17:00 to 16:10 74.57 72.72 72.43 73.86 77.46 80.45
9/2/2017 16:00 to 15:10 78.66 73.86 71.86 70.59 71.46 70.97
9/2/2017 15:00 to 14:10 71.08 70.68 69.77 68.02 71.31 71.31
9/2/2017 14:00 to 13:10 73.31 72.78 72.97 73.96 74.70 76.03
9/2/2017 13:00 to 12:10 75.84 75.80 75.82 74.89 75.16 74.74
9/2/2017 12:00 to 11:10 74.83 74.17 74.95 75.67 74.74 73.98
9/2/2017 11:00 to 10:10 71.52 71.82 71.23 72.22 73.75 73.14
9/2/2017 10:00 to 9:10 72.22 74.34 75.04 79.19 80.16 80.20
9/2/2017 09:00 to 8:10 81.06 77.86 76.26 76.15 78.16 77.69
9/2/2017 08:00 to 7:10 77.31 76.28 79.31 79.00 78.18 77.92
9/2/2017 07:00 to 6:10 79.31 78.98 79.63 80.16 81.10 81.04
9/2/2017 06:00 to 5:10 82.24 79.71 75.52 75.04 80.39 81.31
9/2/2017 05:00 to 4:10 83.59 84.54 84.77 85.40 84.87 85.55
9/2/2017 04:00 to 3:10 84.54 83.23 82.83 82.20 81.99 83.48
9/2/2017 03:00 to 2:10 81.53 79.55 79.63 78.66 79.36 74.41
9/2/2017 02:00 to 1:10 74.45 75.54 74.26 71.44 72.49 70.61
9/2/2017 01:00 to 0:10 71.88 73.21 70.00 71.69 75.16 79.69
9/2/2017 00:00 to 23:10 83.72 82.16 82.51 82.75 82.68 81.90
9/1/2017 23:00 to 22:10 81.04 81.53 83.91 85.32 86.16 86.87
9/1/2017 22:00 to 21:10 87.84 87.65 85.32 85.72 86.22 86.71
9/1/2017 21:00 to 20:10 88.14 85.13 88.96 88.79 88.67 90.35
9/1/2017 20:00 to 19:10 90.41 91.38 91.00 90.10 89.91 91.17
9/1/2017 19:00 to 18:10 90.03 90.27 89.00 88.20 86.71 84.14
9/1/2017 18:00 to 17:10 88.90 91.05 90.60 91.15 91.11 92.35
9/1/2017 17:00 to 16:10 92.98 94.82 95.45 96.88 97.32 97.41
9/1/2017 16:00 to 15:10 97.22 97.24 96.88 96.56 96.39 95.97
9/1/2017 15:00 to 14:10 94.88 93.09 92.58 91.55 90.48 90.37
9/1/2017 14:00 to 13:10 89.89 89.28 87.25 87.53 87.40 86.92
9/1/2017 13:00 to 12:10 86.43 86.41 85.70 84.81 85.65 88.05
9/1/2017 12:00 to 11:10 89.32 90.54 91.11 93.13 92.16 84.20
9/1/2017 11:00 to 10:10 84.37 86.62 87.36 87.30 86.90 87.13
9/1/2017 10:00 to 9:10 87.13 86.71 87.13 87.00 86.98 87.42
9/1/2017 09:00 to 8:10 87.34 88.12 88.79 90.33 91.70 92.35
9/1/2017 08:00 to 7:10 92.71 92.86 92.75 92.81 92.35 91.74
9/1/2017 07:00 to 6:10 90.71 89.28 88.73 90.90 91.13 89.02
9/1/2017 06:00 to 5:10 84.96 84.45 83.23 85.08 88.79 89.68
9/1/2017 05:00 to 4:10 89.61 85.88 83.27 82.81 83.84 82.62
9/1/2017 04:00 to 3:10 81.44 79.50 77.33 76.53 78.03 82.33
9/1/2017 03:00 to 2:10 86.52 85.82 83.65 82.56 82.58 84.24
9/1/2017 02:00 to 1:10 82.51 81.23 83.21 82.87 80.47 79.95
9/1/2017 01:00 to 0:10 78.66 75.82 81.12 87.95 86.22 86.66
9/1/2017 00:00 to 23:10 87.49 82.75 83.80 84.01 84.79 85.97
8/31/2017 23:00 to 22:10 85.99 83.44 81.19 81.15 81.38 81.08
8/31/2017 22:00 to 21:10 79.99 79.95 79.59 79.73 80.01 80.66
8/31/2017 21:00 to 20:10 83.97 83.53 83.06 81.57 83.99 84.31
8/31/2017 20:00 to 19:10 82.07 80.89 82.37 83.53 81.38 80.85
8/31/2017 19:00 to 18:10 81.19 80.94 80.81 81.71 81.06 82.41
8/31/2017 18:00 to 17:10 83.08 83.23 82.11 81.65 82.09 82.54
8/31/2017 17:00 to 16:10 84.58 84.24 85.36 83.67 86.94 86.56
8/31/2017 16:00 to 15:10 87.46 85.88 84.49 84.54 83.44 81.12
8/31/2017 15:00 to 14:10 82.79 80.01 80.09 79.99 81.21 83.42
8/31/2017 14:00 to 13:10 83.67 82.92 82.81 82.45 82.33 82.05
8/31/2017 13:00 to 12:10 84.24 82.39 81.61 81.40 82.03 82.09
8/31/2017 12:00 to 11:10 82.20 82.22 82.70 82.81 82.85 81.90
8/31/2017 11:00 to 10:10 81.08 81.15 81.15 81.95 82.16 81.59
8/31/2017 10:00 to 9:10 81.71 81.12 81.27 81.95 81.36 81.53
8/31/2017 09:00 to 8:10 82.14 81.34 80.51 81.21 81.63 81.08
8/31/2017 08:00 to 7:10 80.13 80.16 80.83 81.08 80.37 80.64
8/31/2017 07:00 to 6:10 80.05 78.85 80.01 80.39 80.18 80.28
8/31/2017 06:00 to 5:10 80.54 81.99 81.61 84.37 83.15 82.60
8/31/2017 05:00 to 4:10 81.82 80.16 79.08 78.66 78.96 80.72
8/31/2017 04:00 to 3:10 78.24 77.06 77.90 77.23 76.93 77.54
8/31/2017 03:00 to 2:10 77.40 78.98 81.61 81.53 81.36 80.70
8/31/2017 02:00 to 1:10 79.88 81.59 80.75 80.03 79.17 81.50
8/31/2017 01:00 to 0:10 85.74 85.57 85.04 84.68 84.75 87.21
8/31/2017 00:00 to 23:10 87.23 86.56 85.08 83.19 83.76 83.59
8/30/2017 23:00 to 22:10 84.05 83.69 79.31 75.31 75.73 75.37
8/30/2017 22:00 to 21:10 -- -- -- -- -- --
8/30/2017 21:00 to 20:10 77.75 76.36 78.13 76.55 75.90 78.16
8/30/2017 20:00 to 19:10 77.54 77.00 76.66 78.72 78.51 80.30
8/30/2017 19:00 to 18:10 79.65 79.33 80.75 80.54 80.37 82.20
8/30/2017 18:00 to 17:10 81.88 82.28 80.75 80.30 82.39 81.63
8/30/2017 17:00 to 16:10 81.27 80.66 79.65 79.40 78.66 78.85
8/30/2017 16:00 to 15:10 80.75 80.75 80.18 79.02 79.69 80.11
8/30/2017 15:00 to 14:10 79.65 80.60 81.93 82.09 82.20 83.25
8/30/2017 14:00 to 13:10 83.08 83.65 82.85 82.64 82.87 86.31
8/30/2017 13:00 to 12:10 87.11 87.04 88.18 90.12 90.64 90.83
8/30/2017 12:00 to 11:10 91.02 91.45 91.34 90.77 90.79 91.26
8/30/2017 11:00 to 10:10 90.41 87.42 87.97 88.69 88.33 88.16
8/30/2017 10:00 to 9:10 86.41 81.06 80.30 80.91 77.80 77.88
8/30/2017 09:00 to 8:10 80.77 77.44 76.89 77.63 77.00 75.63
8/30/2017 08:00 to 7:10 75.82 76.15 76.13 75.78 75.56 75.16
8/30/2017 07:00 to 6:10 76.66 76.34 77.29 76.77 76.43 76.95
8/30/2017 06:00 to 5:10 76.45 76.55 76.32 75.86 74.36 75.08
8/30/2017 05:00 to 4:10 75.63 74.66 74.49 73.50 73.82 73.04
8/30/2017 04:00 to 3:10 73.06 73.73 73.18 72.68 73.21 72.24
8/30/2017 03:00 to 2:10 72.28 72.41 71.96 72.76 71.67 72.53
8/30/2017 02:00 to 1:10 -- -- -- -- -- --
8/30/2017 01:00 to 0:10 72.17 72.13 71.96 73.52 74.20 74.66